createdAt,value
2022-11-20T00:01:28.196Z,15.35
2022-11-20T00:04:29.632Z,16.67
2022-11-20T00:07:48.650Z,16.13
2022-11-20T00:11:20.826Z,16.48
2022-11-20T00:14:20.803Z,15.48
2022-11-20T00:17:25.274Z,15.35
2022-11-20T00:20:43.310Z,15.57
2022-11-20T00:23:59.809Z,14.35
2022-11-20T00:27:04.140Z,15.18
2022-11-20T00:29:59.028Z,15.60
2022-11-20T00:33:06.931Z,15.05
2022-11-20T00:36:20.649Z,14.68
2022-11-20T00:39:35.050Z,14.90
2022-11-20T00:42:39.787Z,15.15
2022-11-20T00:45:55.831Z,15.27
2022-11-20T00:49:39.093Z,15.82
2022-11-20T00:55:34.822Z,14.07
2022-11-20T00:59:25.842Z,12.40
2022-11-20T01:10:11.310Z,11.80
2022-11-20T01:14:09.901Z,10.68
2022-11-20T01:20:13.554Z,11.18
2022-11-20T01:23:28.113Z,10.57
2022-11-20T01:26:59.425Z,11.57
2022-11-20T01:30:00.931Z,10.40
2022-11-20T01:33:45.056Z,11.00
2022-11-20T01:40:11.544Z,10.85
2022-11-20T01:43:46.749Z,10.13
2022-11-20T01:47:56.463Z,10.93
2022-11-20T01:53:59.960Z,10.05
2022-11-20T01:57:21.519Z,9.70
2022-11-20T02:00:55.129Z,11.20
2022-11-20T02:03:58.925Z,10.90
2022-11-20T02:11:18.995Z,10.25
2022-11-20T02:14:49.404Z,9.70
2022-11-20T02:17:45.591Z,10.73
2022-11-20T02:20:49.383Z,11.55
2022-11-20T02:24:33.384Z,10.57
2022-11-20T02:28:12.145Z,10.73
2022-11-20T02:31:20.095Z,11.60
2022-11-20T02:34:16.785Z,11.65
2022-11-20T02:37:16.065Z,10.77
2022-11-20T02:40:32.169Z,11.15
2022-11-20T02:43:37.617Z,12.27
2022-11-20T02:46:50.449Z,11.15
2022-11-20T02:53:25.951Z,11.25
2022-11-20T02:56:39.072Z,11.40
2022-11-20T02:59:31.055Z,12.63
2022-11-20T03:02:45.999Z,11.60
2022-11-20T03:05:56.788Z,11.52
2022-11-20T03:09:16.409Z,11.15
2022-11-20T03:12:39.910Z,10.93
2022-11-20T03:15:33.979Z,11.27
2022-11-20T03:18:38.424Z,12.30
2022-11-20T03:21:44.664Z,10.90
2022-11-20T03:24:43.336Z,12.68
2022-11-20T03:28:35.320Z,12.57
2022-11-20T03:31:43.434Z,11.35
2022-11-20T03:35:00.853Z,13.68
2022-11-20T03:38:04.168Z,14.43
2022-11-20T03:41:16.892Z,13.73
2022-11-20T03:44:20.957Z,13.60
2022-11-20T03:47:35.125Z,12.45
2022-11-20T03:50:29.219Z,13.45
2022-11-20T03:53:28.096Z,13.00
2022-11-20T03:56:36.245Z,14.10
2022-11-20T03:59:42.416Z,15.25
2022-11-20T04:03:03.477Z,15.38
2022-11-20T04:06:57.408Z,19.95
2022-11-20T04:10:07.802Z,16.88
2022-11-20T04:13:14.011Z,23.23
2022-11-20T04:16:29.887Z,47.47
2022-11-20T04:19:33.139Z,21.02
2022-11-20T04:22:45.030Z,18.38
2022-11-20T04:25:57.469Z,22.90
2022-11-20T04:29:04.209Z,18.35
2022-11-20T04:32:08.575Z,16.17
2022-11-20T04:35:10.117Z,16.27
2022-11-20T04:38:14.832Z,18.88
2022-11-20T04:41:36.159Z,16.10
2022-11-20T04:44:30.657Z,15.45
2022-11-20T04:47:35.153Z,17.02
2022-11-20T04:51:03.677Z,16.85
2022-11-20T04:54:27.138Z,17.58
2022-11-20T04:57:29.576Z,15.80
2022-11-20T05:00:25.380Z,15.20
2022-11-20T05:03:26.321Z,16.33
2022-11-20T05:06:18.113Z,16.63
2022-11-20T05:09:10.839Z,15.82
2022-11-20T05:12:51.305Z,15.40
2022-11-20T05:15:59.274Z,16.10
2022-11-20T05:18:54.016Z,16.63
2022-11-20T05:22:08.661Z,16.80
2022-11-20T05:25:33.047Z,16.75
2022-11-20T05:29:08.435Z,16.05
2022-11-20T05:36:02.919Z,16.27
2022-11-20T05:39:36.862Z,17.23
2022-11-20T05:42:46.677Z,16.13
2022-11-20T05:46:41.458Z,17.30
2022-11-20T05:50:25.465Z,16.05
2022-11-20T05:53:33.876Z,15.88
2022-11-20T05:57:00.323Z,16.27
2022-11-20T06:00:33.080Z,16.05
2022-11-20T06:03:30.798Z,16.10
2022-11-20T06:06:56.173Z,16.55
2022-11-20T06:10:05.534Z,17.67
2022-11-20T06:13:19.241Z,17.55
2022-11-20T06:19:24.690Z,16.88
2022-11-20T06:26:33.321Z,17.88
2022-11-20T06:30:18.776Z,20.10
2022-11-20T06:34:01.688Z,17.90
2022-11-20T06:37:16.612Z,17.90
2022-11-20T06:40:10.421Z,18.83
2022-11-20T06:43:04.886Z,16.80
2022-11-20T06:46:10.446Z,17.88
2022-11-20T06:49:25.587Z,19.90
2022-11-20T06:52:21.438Z,20.55
2022-11-20T06:55:11.007Z,20.90
2022-11-20T06:58:20.434Z,21.42
2022-11-20T07:01:10.572Z,20.77
2022-11-20T07:04:00.109Z,22.42
2022-11-20T07:07:13.200Z,21.50
2022-11-20T07:10:34.373Z,20.75
2022-11-20T07:13:30.270Z,33.47
2022-11-20T07:17:37.382Z,26.08
2022-11-20T07:21:08.249Z,20.80
2022-11-20T07:23:54.363Z,21.27
2022-11-20T07:26:41.727Z,21.23
2022-11-20T07:29:29.739Z,23.60
2022-11-20T07:35:53.003Z,23.08
2022-11-20T07:38:59.348Z,22.70
2022-11-20T07:41:56.295Z,26.33
2022-11-20T07:44:49.507Z,23.45
2022-11-20T07:47:38.791Z,23.88
2022-11-20T07:51:09.519Z,21.50
2022-11-20T07:54:11.563Z,20.60
2022-11-20T07:57:28.063Z,18.70
2022-11-20T08:00:16.596Z,24.45
2022-11-20T08:03:05.673Z,29.50
2022-11-20T08:05:52.346Z,21.60
2022-11-20T08:08:42.995Z,25.77
2022-11-20T08:11:47.955Z,29.55
2022-11-20T08:14:34.551Z,26.38
2022-11-20T08:17:20.519Z,21.73
2022-11-20T08:20:07.981Z,23.52
2022-11-20T08:22:53.836Z,21.50
2022-11-20T08:25:40.278Z,19.88
2022-11-20T08:28:26.445Z,21.80
2022-11-20T08:31:12.711Z,19.70
2022-11-20T08:33:59.336Z,20.42
2022-11-20T08:36:46.319Z,22.73
2022-11-20T08:39:32.755Z,24.63
2022-11-20T08:42:19.313Z,25.30
2022-11-20T08:45:07.292Z,29.65
2022-11-20T08:47:54.588Z,30.70
2022-11-20T08:50:40.476Z,23.30
2022-11-20T08:53:27.821Z,26.77
2022-11-20T08:56:14.548Z,26.58
2022-11-20T09:02:07.016Z,32.78
2022-11-20T09:04:54.487Z,45.33
2022-11-20T09:07:41.465Z,38.35
2022-11-20T09:10:28.959Z,41.28
2022-11-20T09:13:15.543Z,25.92
2022-11-20T09:16:07.640Z,29.30
2022-11-20T09:19:02.185Z,24.60
2022-11-20T09:22:01.286Z,33.67
2022-11-20T09:24:47.143Z,29.27
2022-11-20T09:27:33.911Z,26.23
2022-11-20T09:30:20.332Z,40.40
2022-11-20T09:33:07.683Z,25.98
2022-11-20T09:35:53.693Z,41.17
2022-11-20T09:38:40.329Z,32.17
2022-11-20T09:41:50.908Z,72.65
2022-11-20T09:45:06.192Z,40.55
2022-11-20T09:48:14.222Z,46.92
2022-11-20T09:51:11.745Z,40.30
2022-11-20T09:54:15.289Z,49.28
2022-11-20T09:57:07.207Z,29.85
2022-11-20T09:59:58.568Z,25.63
2022-11-20T10:02:50.537Z,30.35
2022-11-20T10:05:46.747Z,32.08
2022-11-20T10:09:03.585Z,27.77
2022-11-20T10:12:17.050Z,28.00
2022-11-20T10:15:12.221Z,22.58
2022-11-20T10:18:22.099Z,25.15
2022-11-20T10:21:37.258Z,33.43
2022-11-20T10:24:30.983Z,67.75
2022-11-20T10:27:43.435Z,34.70
2022-11-20T10:30:31.336Z,29.20
2022-11-20T10:33:21.812Z,33.78
2022-11-20T10:36:22.464Z,28.95
2022-11-20T10:39:25.296Z,25.83
2022-11-20T10:42:20.898Z,18.67
2022-11-20T10:45:22.824Z,31.52
2022-11-20T10:48:09.073Z,30.65
2022-11-20T10:51:04.427Z,22.65
2022-11-20T10:53:54.757Z,26.02
2022-11-20T10:56:54.236Z,30.27
2022-11-20T10:59:49.442Z,23.83
2022-11-20T11:02:40.943Z,26.30
2022-11-20T11:05:44.749Z,53.03
2022-11-20T11:08:37.171Z,32.00
2022-11-20T11:11:24.908Z,40.15
2022-11-20T11:14:13.913Z,46.20
2022-11-20T11:17:00.373Z,58.47
2022-11-20T11:19:47.054Z,74.65
2022-11-20T11:22:35.407Z,39.25
2022-11-20T11:25:23.162Z,43.67
2022-11-20T11:28:18.155Z,55.47
2022-11-20T11:31:05.351Z,47.65
2022-11-20T11:33:51.673Z,38.75
2022-11-20T11:36:38.416Z,43.47
2022-11-20T11:39:25.544Z,37.13
2022-11-20T11:42:18.970Z,26.30
2022-11-20T11:45:07.552Z,30.65
2022-11-20T11:47:55.838Z,44.30
2022-11-20T11:50:50.434Z,43.28
2022-11-20T11:53:41.989Z,34.83
2022-11-20T11:56:32.102Z,41.50
2022-11-20T11:59:49.693Z,38.22
2022-11-20T12:02:48.982Z,38.83
2022-11-20T12:05:45.027Z,48.47
2022-11-20T12:08:57.411Z,51.30
2022-11-20T12:11:52.552Z,39.80
2022-11-20T12:14:40.830Z,42.83
2022-11-20T12:17:27.127Z,43.65
2022-11-20T12:20:15.841Z,38.10
2022-11-20T12:23:23.930Z,39.72
2022-11-20T12:26:21.501Z,34.65
2022-11-20T12:30:10.174Z,34.40
2022-11-20T12:33:15.895Z,38.03
2022-11-20T12:36:06.066Z,53.85
2022-11-20T12:39:27.277Z,42.75
2022-11-20T12:42:54.355Z,34.28
2022-11-20T12:46:29.260Z,44.60
2022-11-20T12:49:27.857Z,37.75
2022-11-20T12:52:29.149Z,28.67
2022-11-20T12:55:41.997Z,30.25
2022-11-20T12:58:55.406Z,32.42
2022-11-20T13:02:02.079Z,27.88
2022-11-20T13:05:17.196Z,29.15
2022-11-20T13:08:20.613Z,25.95
2022-11-20T13:11:41.609Z,25.90
2022-11-20T13:15:30.282Z,35.15
2022-11-20T13:18:21.896Z,45.40
2022-11-20T13:21:35.699Z,32.97
2022-11-20T13:24:33.819Z,32.72
2022-11-20T13:27:32.204Z,37.45
2022-11-20T13:30:20.711Z,32.97
2022-11-20T13:33:26.958Z,41.10
2022-11-20T13:36:25.414Z,47.40
2022-11-20T13:39:12.756Z,32.65
2022-11-20T13:42:31.073Z,38.05
2022-11-20T13:45:29.032Z,42.55
2022-11-20T13:48:23.412Z,47.42
2022-11-20T13:51:35.755Z,36.35
2022-11-20T13:54:33.628Z,38.00
2022-11-20T13:57:57.425Z,38.65
2022-11-20T14:00:52.165Z,39.65
2022-11-20T14:06:48.419Z,31.52
2022-11-20T14:09:35.312Z,38.63
2022-11-20T14:12:24.501Z,33.38
2022-11-20T14:15:26.205Z,32.47
2022-11-20T14:18:21.392Z,36.95
2022-11-20T14:21:10.763Z,29.95
2022-11-20T14:24:07.751Z,32.30
2022-11-20T14:26:55.013Z,40.55
2022-11-20T14:29:42.816Z,35.28
2022-11-20T14:32:31.026Z,30.92
2022-11-20T14:35:29.987Z,45.40
2022-11-20T14:38:18.736Z,37.05
2022-11-20T14:41:20.794Z,38.42
2022-11-20T14:44:09.907Z,38.55
2022-11-20T14:46:56.679Z,34.22
2022-11-20T14:49:43.786Z,33.25
2022-11-20T14:52:32.093Z,37.53
2022-11-20T14:55:58.751Z,32.15
2022-11-20T14:58:58.854Z,32.63
2022-11-20T15:01:56.541Z,32.47
2022-11-20T15:04:50.823Z,30.98
2022-11-20T15:07:41.254Z,32.20
2022-11-20T15:10:29.205Z,39.73
2022-11-20T15:13:34.642Z,56.53
2022-11-20T15:16:22.501Z,68.97
2022-11-20T15:19:18.694Z,57.97
2022-11-20T15:22:17.360Z,44.65
2022-11-20T15:25:13.113Z,39.10
2022-11-20T15:27:59.292Z,35.65
2022-11-20T15:30:47.315Z,41.45
2022-11-20T15:33:34.336Z,59.10
2022-11-20T15:36:21.584Z,57.45
2022-11-20T15:39:09.322Z,57.95
2022-11-20T15:41:55.752Z,50.38
2022-11-20T15:44:42.091Z,52.85
2022-11-20T15:47:35.879Z,61.38
2022-11-20T15:50:23.336Z,57.20
2022-11-20T15:53:11.671Z,47.53
2022-11-20T15:55:58.401Z,62.53
2022-11-20T15:58:45.087Z,92.53
2022-11-20T16:01:33.872Z,69.95
2022-11-20T16:04:20.974Z,55.33
2022-11-20T16:07:07.412Z,53.08
2022-11-20T16:09:53.937Z,60.05
2022-11-20T16:12:58.937Z,50.58
2022-11-20T16:15:53.814Z,51.28
2022-11-20T16:18:40.132Z,61.88
2022-11-20T16:21:33.111Z,62.85
2022-11-20T16:24:19.608Z,55.38
2022-11-20T16:27:09.264Z,58.80
2022-11-20T16:29:56.049Z,73.78
2022-11-20T16:32:43.463Z,81.30
2022-11-20T16:35:31.632Z,110.30
2022-11-20T16:38:18.256Z,116.40
2022-11-20T16:41:14.814Z,108.53
2022-11-20T16:44:03.950Z,109.80
2022-11-20T16:46:50.444Z,105.00
2022-11-20T16:49:37.026Z,120.57
2022-11-20T16:52:23.532Z,109.05
2022-11-20T16:55:10.514Z,109.45
2022-11-20T16:57:57.673Z,97.00
2022-11-20T17:00:50.020Z,106.47
2022-11-20T17:03:38.916Z,104.53
2022-11-20T17:06:27.949Z,97.53
2022-11-20T17:09:14.676Z,95.75
2022-11-20T17:12:01.166Z,92.20
2022-11-20T17:14:47.750Z,96.63
2022-11-20T17:17:34.491Z,88.35
2022-11-20T17:20:23.621Z,108.90
2022-11-20T17:23:10.296Z,141.10
2022-11-20T17:26:07.627Z,138.48
2022-11-20T17:29:03.138Z,103.10
2022-11-20T17:31:59.594Z,93.93
2022-11-20T17:34:48.762Z,86.18
2022-11-20T17:37:35.228Z,75.15
2022-11-20T17:40:27.544Z,84.68
2022-11-20T17:43:14.573Z,67.05
2022-11-20T17:46:14.763Z,70.50
2022-11-20T17:49:23.047Z,78.82
2022-11-20T17:52:10.673Z,63.00
2022-11-20T17:54:59.615Z,64.13
2022-11-20T17:57:56.964Z,160.93
2022-11-20T18:00:45.447Z,72.97
2022-11-20T18:03:33.174Z,68.20
2022-11-20T18:06:25.475Z,71.70
2022-11-20T18:09:12.669Z,66.95
2022-11-20T18:11:58.795Z,78.68
2022-11-20T18:14:45.569Z,60.58
2022-11-20T18:17:37.411Z,71.25
2022-11-20T18:20:30.489Z,71.07
2022-11-20T18:23:19.195Z,53.35
2022-11-20T18:26:05.773Z,53.83
2022-11-20T18:28:55.266Z,58.70
2022-11-20T18:31:42.714Z,56.38
2022-11-20T18:34:29.125Z,53.38
2022-11-20T18:37:16.727Z,53.90
2022-11-20T18:40:03.676Z,58.88
2022-11-20T18:43:09.048Z,57.33
2022-11-20T18:46:03.176Z,44.58
2022-11-20T18:48:52.959Z,45.90
2022-11-20T18:51:46.158Z,38.55
2022-11-20T18:54:32.627Z,43.35
2022-11-20T18:57:23.561Z,43.25
2022-11-20T19:02:57.592Z,41.13
2022-11-20T19:05:47.037Z,45.72
2022-11-20T19:08:40.717Z,54.05
2022-11-20T19:11:27.346Z,55.03
2022-11-20T19:14:16.678Z,58.47
2022-11-20T19:17:04.616Z,46.70
2022-11-20T19:20:03.141Z,36.10
2022-11-20T19:22:51.533Z,49.30
2022-11-20T19:25:38.598Z,63.35
2022-11-20T19:28:25.476Z,53.75
2022-11-20T19:31:14.380Z,46.63
2022-11-20T19:34:03.617Z,51.95
2022-11-20T19:36:51.093Z,53.67
2022-11-20T19:39:38.455Z,51.55
2022-11-20T19:42:25.677Z,49.20
2022-11-20T19:45:13.272Z,54.42
2022-11-20T19:48:07.760Z,48.38
2022-11-20T19:50:55.934Z,46.75
2022-11-20T19:53:42.727Z,45.63
2022-11-20T19:56:31.563Z,70.53
2022-11-20T19:59:18.642Z,65.32
2022-11-20T20:02:05.762Z,54.10
2022-11-20T20:04:56.918Z,59.10
2022-11-20T20:07:44.825Z,60.13
2022-11-20T20:10:31.642Z,46.83
2022-11-20T20:13:20.917Z,38.60
2022-11-20T20:16:12.326Z,34.75
2022-11-20T20:19:03.565Z,40.33
2022-11-20T20:21:54.058Z,43.45
2022-11-20T20:24:42.104Z,89.97
2022-11-20T20:27:31.879Z,106.38
2022-11-20T20:30:19.848Z,84.30
2022-11-20T20:33:06.920Z,65.53
2022-11-20T20:35:54.034Z,47.00
2022-11-20T20:38:42.956Z,43.33
2022-11-20T20:41:30.359Z,34.55
2022-11-20T20:44:35.619Z,36.50
2022-11-20T20:47:23.476Z,33.30
2022-11-20T20:50:12.064Z,35.83
2022-11-20T20:52:58.589Z,45.03
2022-11-20T20:55:57.572Z,39.60
2022-11-20T20:58:45.335Z,41.85
2022-11-20T21:01:31.716Z,43.67
2022-11-20T21:04:18.665Z,43.97
2022-11-20T21:07:05.761Z,37.75
2022-11-20T21:09:52.234Z,37.88
2022-11-20T21:12:40.610Z,47.72
2022-11-20T21:15:27.265Z,40.88
2022-11-20T21:18:13.441Z,35.70
2022-11-20T21:21:18.809Z,31.30
2022-11-20T21:24:06.916Z,31.00
2022-11-20T21:27:08.453Z,29.15
2022-11-20T21:29:55.121Z,27.33
2022-11-20T21:32:44.244Z,26.92
2022-11-20T21:35:30.293Z,27.80
2022-11-20T21:38:16.835Z,35.20
2022-11-20T21:41:08.246Z,39.20
2022-11-20T21:47:10.243Z,44.60
2022-11-20T21:49:59.609Z,41.95
2022-11-20T21:52:46.102Z,40.95
2022-11-20T21:55:32.769Z,42.33
2022-11-20T21:58:19.271Z,42.50
2022-11-20T22:01:09.367Z,42.30
2022-11-20T22:04:00.782Z,37.35
2022-11-20T22:06:50.279Z,35.53
2022-11-20T22:09:40.847Z,34.60
2022-11-20T22:12:33.894Z,30.05
2022-11-20T22:15:53.269Z,31.10
2022-11-20T22:18:28.864Z,31.02
2022-11-20T22:21:16.409Z,32.13
2022-11-20T22:24:02.884Z,36.42
2022-11-20T22:26:49.242Z,36.13
2022-11-20T22:29:40.640Z,34.22
2022-11-20T22:32:29.157Z,33.97
2022-11-20T22:35:16.095Z,34.97
2022-11-20T22:38:07.808Z,34.22
2022-11-20T22:40:55.475Z,29.63
2022-11-20T22:43:44.964Z,30.92
2022-11-20T22:46:33.769Z,27.83
2022-11-20T22:49:22.751Z,29.20
2022-11-20T22:52:09.481Z,32.72
2022-11-20T22:54:57.862Z,31.58
2022-11-20T22:57:44.287Z,34.40
2022-11-20T23:00:31.987Z,33.78
2022-11-20T23:03:18.771Z,33.25
2022-11-20T23:06:05.537Z,31.42
2022-11-20T23:08:52.960Z,38.58
2022-11-20T23:11:42.298Z,37.40
2022-11-20T23:14:32.480Z,34.40
2022-11-20T23:17:34.536Z,32.67
2022-11-20T23:20:20.897Z,31.27
2022-11-20T23:23:07.265Z,31.25
2022-11-20T23:25:53.678Z,31.90
